Time;durP1;ratioP1;P1;durP2;ratioP2;P2;SDS_P1;SDS_P2;PMS_P1;PMS_P2;Temp;Humidity;BMP_temperature;BMP_pressure;BME280_temperature;BME280_humidity;BME280_pressure;Samples;Min_cycle;Max_cycle;Signal;HPM_P1;HPM_P2
2021/05/18 00:00:41;;;;;;;;;;;;;;;9.60;100.00;98380.44;5006879;28;19928;-83
2021/05/18 00:03:07;;;;;;;;;;;;;;;9.91;100.00;98385.25;5005861;28;19917;-83
2021/05/18 00:05:33;;;;;;;;;;;;;;;9.66;100.00;98387.09;5022934;28;19925;-84
2021/05/18 00:08:00;;;;;;;;;;;;;;;9.71;100.00;98387.75;5023902;28;19925;-83
2021/05/18 00:13:11;;;;;;;;;;;;;;;10.04;100.00;98378.72;5024486;28;20809;-84
2021/05/18 00:15:36;;;;;;;;;;;;;;;9.56;100.00;98384.88;5012680;28;19921;-84
2021/05/18 00:18:02;;;;;;;;;;;;;;;9.54;100.00;98389.22;4994296;28;19925;-83
2021/05/18 00:20:28;;;;;;;;;;;;;;;9.44;100.00;98385.31;4988482;28;19918;-84
2021/05/18 00:22:53;;;;;;;;;;;;;;;9.66;100.00;98389.66;5000723;28;20007;-83
2021/05/18 00:25:18;;;;;;;;;;;;;;;9.47;100.00;98392.94;4988994;28;20507;-83
2021/05/18 00:27:43;;;;;;;;;;;;;;;9.60;100.00;98394.16;5005110;28;19987;-83
2021/05/18 00:30:10;;;;;;;;;;;;;;;9.82;100.00;98391.56;5011598;28;19925;-83
2021/05/18 00:32:35;;;;;;;;;;;;;;;9.89;100.00;98393.91;4982023;28;19922;-83
2021/05/18 00:35:00;;;;;;;;;;;;;;;9.66;100.00;98397.38;4990509;28;20680;-83
2021/05/18 00:37:26;;;;;;;;;;;;;;;9.39;100.00;98393.19;4995929;28;20369;-83
2021/05/18 00:39:51;;;;;;;;;;;;;;;9.40;100.00;98399.19;4989932;28;20328;-83
2021/05/18 00:42:17;;;;;;;;;;;;;;;9.40;100.00;98399.19;5009315;28;19960;-83
2021/05/18 00:44:43;;;;;;;;;;;;;;;9.38;100.00;98399.25;5008337;28;19921;-83
2021/05/18 00:47:08;;;;;;;;;;;;;;;9.60;100.00;98404.44;5014338;28;20391;-83
2021/05/18 00:49:34;;;;;;;;;;;;;;;9.33;100.00;98405.47;5006289;28;19925;-83
2021/05/18 00:51:59;;;;;;;;;;;;;;;9.34;100.00;98400.25;5015096;28;19921;-83
2021/05/18 00:54:27;;;;;;;;;;;;;;;9.34;100.00;98405.38;4989733;28;19956;-83
2021/05/18 00:59:51;;;;;;;;;;;;;;;9.34;100.00;98402.81;5007337;28;19931;-82
2021/05/18 01:02:17;;;;;;;;;;;;;;;9.34;100.00;98407.94;4989973;28;20460;-83
2021/05/18 01:04:43;;;;;;;;;;;;;;;9.47;100.00;98408.34;5041325;28;19931;-83
2021/05/18 01:07:09;;;;;;;;;;;;;;;9.56;100.00;98408.00;4993442;28;19980;-83
2021/05/18 01:09:35;;;;;;;;;;;;;;;9.53;100.00;98410.69;5015706;28;20427;-83
2021/05/18 01:12:00;;;;;;;;;;;;;;;9.59;100.00;98405.31;4997173;28;20072;-82
2021/05/18 01:14:26;;;;;;;;;;;;;;;9.32;100.00;98404.59;4986964;28;19921;-83
2021/05/18 01:16:51;;;;;;;;;;;;;;;9.32;100.00;98408.91;5002803;28;20412;-82
2021/05/18 01:19:18;;;;;;;;;;;;;;;9.55;100.00;98406.31;5006419;28;19979;-82
2021/05/18 01:21:44;;;;;;;;;;;;;;;9.62;100.00;98406.94;5000908;28;19925;-83
2021/05/18 01:24:09;;;;;;;;;;;;;;;9.41;100.00;98408.56;5006798;28;19962;-83
2021/05/18 01:26:35;;;;;;;;;;;;;;;9.38;100.00;98413.84;5004909;28;19992;-82
2021/05/18 01:29:01;;;;;;;;;;;;;;;9.33;100.00;98408.03;4996696;28;20539;-82
2021/05/18 01:31:26;;;;;;;;;;;;;;;9.55;100.00;98413.19;4996436;28;20009;-83
2021/05/18 01:33:53;;;;;;;;;;;;;;;9.56;100.00;98414.88;4975817;28;20312;-82
2021/05/18 01:36:20;;;;;;;;;;;;;;;9.58;100.00;98413.09;4986235;28;20024;-82
2021/05/18 01:39:22;;;;;;;;;;;;;;;9.53;100.00;98420.97;5013287;28;19920;-83
2021/05/18 01:44:28;;;;;;;;;;;;;;;9.66;100.00;98416.22;5006418;28;19928;-82
2021/05/18 01:46:54;;;;;;;;;;;;;;;9.28;100.00;98415.03;4996357;28;19921;-82
2021/05/18 01:49:19;;;;;;;;;;;;;;;9.24;100.00;98418.59;5022765;28;19928;-83
2021/05/18 01:51:45;;;;;;;;;;;;;;;9.18;100.00;98420.50;5028849;28;19924;-82
2021/05/18 01:54:15;;;;;;;;;;;;;;;8.92;100.00;98425.75;5006706;28;19929;-83
2021/05/18 01:59:07;;;;;;;;;;;;;;;9.25;100.00;98420.31;4992806;28;19932;-83
2021/05/18 02:01:32;;;;;;;;;;;;;;;9.15;100.00;98424.94;5016317;28;20011;-82
2021/05/18 02:03:58;;;;;;;;;;;;;;;9.35;100.00;98421.63;4998233;28;20242;-82
2021/05/18 02:06:23;;;;;;;;;;;;;;;9.76;100.00;98421.84;4986057;28;20471;-83
2021/05/18 02:08:49;;;;;;;;;;;;;;;9.51;100.00;98422.78;5020563;28;19925;-83
2021/05/18 02:11:14;;;;;;;;;;;;;;;9.31;100.00;98420.91;5008430;28;19965;-83
2021/05/18 02:13:45;;;;;;;;;;;;;;;9.28;100.00;98420.19;5014242;28;19929;-83
2021/05/18 02:16:14;;;;;;;;;;;;;;;9.36;100.00;98416.44;5008621;28;19925;-82
2021/05/18 02:21:32;;;;;;;;;;;;;;;9.79;100.00;98421.72;5014193;28;19926;-83
2021/05/18 02:26:41;;;;;;;;;;;;;;;9.95;100.00;98427.97;5001046;28;19928;-83
2021/05/18 02:29:07;;;;;;;;;;;;;;;10.27;100.00;98429.25;4986645;28;19925;-83
2021/05/18 02:31:32;;;;;;;;;;;;;;;10.15;100.00;98431.47;5022254;28;19957;-83
2021/05/18 02:33:58;;;;;;;;;;;;;;;10.22;100.00;98425.22;4986677;28;20483;-83
2021/05/18 02:36:24;;;;;;;;;;;;;;;10.43;100.00;98429.50;5017068;28;20441;-83
2021/05/18 02:38:50;;;;;;;;;;;;;;;10.49;100.00;98425.00;4996750;28;20016;-82
2021/05/18 02:41:15;;;;;;;;;;;;;;;10.32;100.00;98429.09;5009476;28;19928;-83
2021/05/18 02:43:54;;;;;;;;;;;;;;;10.43;100.00;98429.50;4987005;28;19932;-82
2021/05/18 02:51:29;;;;;;;;;;;;;;;10.48;100.00;98420.78;5007239;28;19932;-83
2021/05/18 02:53:54;;;;;;;;;;;;;;;10.56;100.00;98423.84;5019494;28;20504;-83
2021/05/18 02:56:39;;;;;;;;;;;;;;;10.53;100.00;98429.13;4997756;28;20011;-83
2021/05/18 03:01:40;;;;;;;;;;;;;;;10.51;100.00;98430.94;5014878;28;20372;-82
2021/05/18 03:04:05;;;;;;;;;;;;;;;10.05;100.00;98434.41;4984023;28;19918;-82
2021/05/18 03:06:31;;;;;;;;;;;;;;;10.25;100.00;98441.34;5002475;28;19984;-82
2021/05/18 03:08:56;;;;;;;;;;;;;;;10.48;100.00;98447.34;4988970;28;19965;-83
2021/05/18 03:11:22;;;;;;;;;;;;;;;10.55;100.00;98437.63;5007204;28;19921;-83
2021/05/18 03:13:47;;;;;;;;;;;;;;;10.61;100.00;98440.81;5015181;28;20423;-83
2021/05/18 03:16:12;;;;;;;;;;;;;;;10.67;100.00;98443.13;5004263;28;19979;-83
2021/05/18 03:18:38;;;;;;;;;;;;;;;10.62;100.00;98439.88;4988364;28;19925;-83
2021/05/18 03:21:03;;;;;;;;;;;;;;;10.68;100.00;98438.81;4997066;28;20219;-83
2021/05/18 03:23:29;;;;;;;;;;;;;;;10.79;100.00;98441.78;5006185;28;19933;-83
2021/05/18 03:25:54;;;;;;;;;;;;;;;10.52;100.00;98440.34;5003760;28;20357;-83
2021/05/18 03:28:21;;;;;;;;;;;;;;;10.58;100.00;98440.09;5002870;28;19929;-83
2021/05/18 03:35:58;;;;;;;;;;;;;;;10.62;100.00;98449.34;5009860;28;20337;-83
2021/05/18 03:40:53;;;;;;;;;;;;;;;10.59;100.00;98459.78;5001637;28;19921;-84
2021/05/18 04:18:30;;;;;;;;;;;;;;;10.27;100.00;98464.47;5011580;28;19948;-86
2021/05/18 04:21:12;;;;;;;;;;;;;;;10.59;100.00;98465.78;5006341;28;19921;-86
2021/05/18 04:52:18;;;;;;;;;;;;;;;10.58;100.00;98486.44;5023687;28;19979;-90
2021/05/18 05:00:19;;;;;;;;;;;;;;;10.55;100.00;98494.28;5020877;28;19924;-85
2021/05/18 05:16:08;;;;;;;;;;;;;;;10.74;100.00;98499.53;5022073;28;19979;-87
2021/05/18 05:18:33;;;;;;;;;;;;;;;10.85;100.00;98511.06;4999203;28;19925;-87
2021/05/18 05:20:59;;;;;;;;;;;;;;;10.80;100.00;98514.72;4999166;28;19917;-89
2021/05/18 05:23:29;;;;;;;;;;;;;;;11.02;100.00;98514.69;5038218;28;19921;-90
2021/05/18 05:25:56;;;;;;;;;;;;;;;10.88;100.00;98516.09;5040549;28;19948;-90
2021/05/18 05:28:22;;;;;;;;;;;;;;;10.87;100.00;98511.84;5035676;22;19979;-66
2021/05/18 05:30:47;;;;;;;;;;;;;;;10.65;100.00;98511.88;5017714;28;20382;-66
2021/05/18 05:33:12;;;;;;;;;;;;;;;10.33;100.00;98515.75;5023202;28;20289;-66
2021/05/18 05:35:38;;;;;;;;;;;;;;;10.62;100.00;98512.00;5018999;28;19917;-66
2021/05/18 05:38:05;;;;;;;;;;;;;;;10.86;100.00;98515.31;5023356;28;20392;-66
2021/05/18 05:40:30;;;;;;;;;;;;;;;10.60;100.00;98523.25;5011136;28;19917;-66
2021/05/18 05:42:56;;;;;;;;;;;;;;;10.91;100.00;98522.03;5028026;28;20289;-66
2021/05/18 05:45:21;;;;;;;;;;;;;;;10.73;100.00;98521.88;5011906;28;19918;-66
2021/05/18 05:47:46;;;;;;;;;;;;;;;11.06;100.00;98526.53;5011566;28;19914;-66
2021/05/18 05:50:12;;;;;;;;;;;;;;;10.92;100.00;98523.69;5010595;28;19937;-66
2021/05/18 05:52:37;;;;;;;;;;;;;;;10.97;100.00;98527.78;5019007;28;20382;-66
2021/05/18 05:55:03;;;;;;;;;;;;;;;11.05;100.00;98527.44;5014932;28;19917;-66
2021/05/18 05:57:28;;;;;;;;;;;;;;;10.64;100.00;98525.66;5010699;28;19913;-66
2021/05/18 05:59:54;;;;;;;;;;;;;;;11.07;100.00;98529.06;5015875;28;19992;-66
2021/05/18 06:02:19;;;;;;;;;;;;;;;11.12;100.00;98535.75;5017309;28;19917;-66
2021/05/18 06:04:44;;;;;;;;;;;;;;;10.80;100.00;98528.44;5019364;28;21129;-66
2021/05/18 06:07:10;;;;;;;;;;;;;;;11.05;100.00;98532.59;5013509;28;19987;-66
2021/05/18 06:09:37;;;;;;;;;;;;;;;11.07;100.00;98520.50;5015532;28;20405;-66
2021/05/18 06:49:22;;;;;;;;;;;;;;;11.02;100.00;98550.78;5035059;28;20505;-66
2021/05/18 06:51:48;;;;;;;;;;;;;;;11.03;100.00;98553.25;5018138;28;19914;-65
2021/05/18 06:54:13;;;;;;;;;;;;;;;10.67;100.00;98551.28;5020059;28;20349;-65
2021/05/18 06:56:40;;;;;;;;;;;;;;;10.73;100.00;98549.38;5030236;28;20004;-65
2021/05/18 07:01:30;;;;;;;;;;;;;;;11.14;100.00;98557.97;5035002;28;20366;-65
2021/05/18 07:03:59;;;;;;;;;;;;;;;11.63;100.00;98550.75;5026183;28;19912;-65
2021/05/18 07:09:08;;;;;;;;;;;;;;;11.53;100.00;98552.03;5031170;28;20345;-65
2021/05/18 07:11:34;;;;;;;;;;;;;;;11.27;100.00;98561.72;5035917;28;19956;-65
2021/05/18 07:13:59;;;;;;;;;;;;;;;10.73;100.00;98565.66;5020942;28;19919;-65
2021/05/18 07:16:24;;;;;;;;;;;;;;;10.62;100.00;98567.81;5032136;28;20038;-65
2021/05/18 07:18:50;;;;;;;;;;;;;;;10.83;100.00;98563.53;5041622;28;19913;-65
2021/05/18 07:21:16;;;;;;;;;;;;;;;10.72;100.00;98561.41;5029468;28;19920;-65
2021/05/18 07:23:42;;;;;;;;;;;;;;;11.05;100.00;98561.78;5012332;28;20008;-65
2021/05/18 07:26:07;;;;;;;;;;;;;;;10.54;100.00;98557.00;5017151;28;20012;-65
2021/05/18 07:28:34;;;;;;;;;;;;;;;10.58;100.00;98561.09;5013483;28;19921;-65
2021/05/18 07:31:00;;;;;;;;;;;;;;;10.94;100.00;98563.13;5005692;28;19967;-66
2021/05/18 07:33:28;;;;;;;;;;;;;;;10.58;100.00;98561.97;4995994;28;19913;-65
2021/05/18 07:36:07;;;;;;;;;;;;;;;10.62;100.00;98560.09;5019877;28;19951;-64
2021/05/18 07:38:32;;;;;;;;;;;;;;;10.80;100.00;98563.69;5004695;28;20405;-65
2021/05/18 07:40:57;;;;;;;;;;;;;;;11.12;100.00;98569.25;5032408;28;19920;-65
2021/05/18 07:43:23;;;;;;;;;;;;;;;11.47;100.00;98570.34;5023872;28;19924;-64
2021/05/18 07:45:54;;;;;;;;;;;;;;;11.72;100.00;98568.41;5032746;28;19939;-65
2021/05/18 07:48:28;;;;;;;;;;;;;;;11.85;100.00;98567.88;5023566;28;20011;-65
2021/05/18 08:07:34;;;;;;;;;;;;;;;12.42;100.00;98573.91;5021129;28;19936;-65
2021/05/18 08:12:31;;;;;;;;;;;;;;;11.96;100.00;98581.16;5044361;28;19913;-65
2021/05/18 08:17:41;;;;;;;;;;;;;;;11.88;100.00;98578.94;5038988;28;19917;-65
2021/05/18 09:50:03;;;;;;;;;;;;;;;11.49;100.00;98596.91;5035143;28;19924;-65
2021/05/18 10:35:37;;;;;;;;;;;;;;;11.39;100.00;98585.31;5032087;28;19917;-65
2021/05/18 10:38:05;;;;;;;;;;;;;;;12.36;100.00;98589.69;5048277;28;20301;-65
2021/05/18 10:40:31;;;;;;;;;;;;;;;11.38;100.00;98589.66;5032933;28;20497;-65
2021/05/18 10:43:08;;;;;;;;;;;;;;;11.15;100.00;98588.00;5029078;28;20003;-65
2021/05/18 10:45:53;;;;;;;;;;;;;;;11.06;100.00;98588.38;5032474;28;19928;-65
2021/05/18 10:48:24;;;;;;;;;;;;;;;11.46;100.00;98581.59;5036347;28;19913;-65
2021/05/18 10:50:50;;;;;;;;;;;;;;;12.52;100.00;98593.25;5017883;28;19959;-65
2021/05/18 10:53:22;;;;;;;;;;;;;;;13.59;100.00;98581.19;5029990;28;19913;-65
2021/05/18 10:56:03;;;;;;;;;;;;;;;15.06;100.00;98575.88;5013857;28;20012;-65
2021/05/18 10:58:28;;;;;;;;;;;;;;;14.46;100.00;98580.94;5038798;28;20420;-65
2021/05/18 11:00:53;;;;;;;;;;;;;;;14.39;100.00;98584.75;5030691;28;19957;-65
2021/05/18 11:03:19;;;;;;;;;;;;;;;12.71;100.00;98592.38;5029070;28;19923;-65
2021/05/18 11:05:44;;;;;;;;;;;;;;;13.89;100.00;98585.69;5032475;28;20019;-65
2021/05/18 11:08:14;;;;;;;;;;;;;;;13.27;100.00;98591.38;5020116;28;19913;-65
2021/05/18 11:10:40;;;;;;;;;;;;;;;12.86;100.00;98594.22;5019352;28;19913;-65
2021/05/18 11:13:05;;;;;;;;;;;;;;;13.48;100.00;98588.66;5023241;28;19943;-65
2021/05/18 11:15:31;;;;;;;;;;;;;;;12.72;100.00;98591.47;5029467;28;20416;-65
2021/05/18 11:17:56;;;;;;;;;;;;;;;12.24;100.00;98592.81;5029011;28;19919;-65
2021/05/18 11:25:51;;;;;;;;;;;;;;;11.72;100.00;98599.38;5033403;28;19913;-65
2021/05/18 11:28:17;;;;;;;;;;;;;;;12.04;100.00;98612.66;5034245;28;19952;-64
2021/05/18 11:30:43;;;;;;;;;;;;;;;12.59;100.00;98622.22;5046246;28;19913;-64
2021/05/18 11:33:09;;;;;;;;;;;;;;;12.85;100.00;98622.75;5036299;28;19914;-65
2021/05/18 11:35:35;;;;;;;;;;;;;;;11.60;100.00;98648.88;5020745;28;19956;-65
2021/05/18 11:38:12;;;;;;;;;;;;;;;9.80;100.00;98667.69;5025800;28;19913;-66
2021/05/18 11:40:38;;;;;;;;;;;;;;;8.59;100.00;98687.78;5020446;28;19920;-65
2021/05/18 11:43:17;;;;;;;;;;;;;;;8.56;100.00;98693.00;5021969;28;19913;-64
2021/05/18 11:45:42;;;;;;;;;;;;;;;8.86;100.00;98685.28;5020748;28;20022;-65
2021/05/18 11:48:11;;;;;;;;;;;;;;;8.92;100.00;98683.38;5049838;28;20011;-64
2021/05/18 11:50:36;;;;;;;;;;;;;;;8.73;100.00;98688.22;5026133;28;20297;-64
2021/05/18 11:53:02;;;;;;;;;;;;;;;8.66;100.00;98684.13;5039289;28;19927;-64
2021/05/18 11:55:31;;;;;;;;;;;;;;;9.07;100.00;98689.75;5041107;28;19917;-64
2021/05/18 11:57:56;;;;;;;;;;;;;;;9.30;100.00;98693.34;5021049;28;20188;-65
2021/05/18 12:00:30;;;;;;;;;;;;;;;9.00;100.00;98695.97;5032608;28;20039;-65
2021/05/18 12:03:02;;;;;;;;;;;;;;;9.01;100.00;98695.09;5033568;28;19952;-65
2021/05/18 12:05:28;;;;;;;;;;;;;;;9.32;100.00;98689.00;5035987;28;20916;-65
2021/05/18 12:07:53;;;;;;;;;;;;;;;9.37;100.00;98689.69;5042416;28;20011;-64
2021/05/18 12:10:28;;;;;;;;;;;;;;;9.53;100.00;98696.00;5034016;28;19927;-65
2021/05/18 12:12:53;;;;;;;;;;;;;;;10.33;100.00;98685.59;5048740;28;19921;-65
2021/05/18 12:15:18;;;;;;;;;;;;;;;10.85;100.00;98686.22;5032527;28;20020;-64
2021/05/18 12:17:43;;;;;;;;;;;;;;;10.48;100.00;98683.38;5035304;28;20441;-65
2021/05/18 12:20:14;;;;;;;;;;;;;;;11.09;100.00;98679.28;5035306;28;19926;-65
2021/05/18 12:22:43;;;;;;;;;;;;;;;11.01;100.00;98673.59;5037176;28;19916;-65
2021/05/18 12:25:09;;;;;;;;;;;;;;;11.30;100.00;98672.44;5050871;28;20340;-66
2021/05/18 12:27:44;;;;;;;;;;;;;;;10.93;100.00;98679.97;5052924;28;19912;-66
2021/05/18 12:30:09;;;;;;;;;;;;;;;11.55;100.00;98676.59;5037735;28;19921;-66
2021/05/18 12:32:36;;;;;;;;;;;;;;;10.81;100.00;98679.53;5047409;28;19923;-66
2021/05/18 12:35:04;;;;;;;;;;;;;;;11.41;100.00;98673.75;5048659;28;19961;-66
2021/05/18 12:37:42;;;;;;;;;;;;;;;11.42;100.00;98673.69;5046475;28;20348;-66
2021/05/18 12:40:13;;;;;;;;;;;;;;;12.21;100.00;98673.00;5045148;28;20127;-66
2021/05/18 12:42:38;;;;;;;;;;;;;;;12.50;100.00;98674.31;5042652;28;20318;-66
2021/05/18 12:45:07;;;;;;;;;;;;;;;12.54;100.00;98670.66;5035631;28;20004;-66
2021/05/18 12:47:38;;;;;;;;;;;;;;;12.31;100.00;98669.09;5030026;28;20266;-66
2021/05/18 12:50:10;;;;;;;;;;;;;;;12.59;100.00;98670.44;5051216;28;20448;-66
2021/05/18 12:52:35;;;;;;;;;;;;;;;12.00;100.00;98669.63;5046169;28;19921;-66
2021/05/18 12:55:01;;;;;;;;;;;;;;;12.09;100.00;98656.31;5050226;28;19924;-66
2021/05/18 12:57:27;;;;;;;;;;;;;;;12.70;100.00;98658.72;5050423;28;19936;-66
2021/05/18 12:59:56;;;;;;;;;;;;;;;13.18;100.00;98657.31;5030071;28;19914;-65
2021/05/18 13:02:31;;;;;;;;;;;;;;;13.13;100.00;98658.44;5032573;28;19913;-66
2021/05/18 13:05:07;;;;;;;;;;;;;;;13.54;100.00;98658.22;5032473;28;20008;-66
2021/05/18 13:07:33;;;;;;;;;;;;;;;12.54;100.00;98658.59;5045074;28;19958;-65
2021/05/18 13:10:28;;;;;;;;;;;;;;;13.81;100.00;98649.06;5052225;28;19912;-66
2021/05/18 13:13:00;;;;;;;;;;;;;;;13.53;100.00;98657.38;5033839;28;19913;-66
2021/05/18 13:15:25;;;;;;;;;;;;;;;13.20;100.00;98646.88;5032146;28;20016;-66
2021/05/18 13:17:52;;;;;;;;;;;;;;;12.12;100.00;98649.25;5050243;28;19999;-66
2021/05/18 13:20:17;;;;;;;;;;;;;;;12.73;100.00;98639.66;5050005;28;20260;-65
2021/05/18 13:22:43;;;;;;;;;;;;;;;13.59;100.00;98630.34;5051004;28;19955;-66
2021/05/18 13:27:48;;;;;;;;;;;;;;;12.85;100.00;98639.06;5013970;28;19913;-66
2021/05/18 13:30:14;;;;;;;;;;;;;;;13.57;100.00;98633.03;5035744;28;19925;-66
2021/05/18 13:32:39;;;;;;;;;;;;;;;13.25;100.00;98637.19;5030066;28;19920;-65
2021/05/18 13:35:05;;;;;;;;;;;;;;;13.06;100.00;98636.38;5031075;28;19917;-66
2021/05/18 13:37:30;;;;;;;;;;;;;;;13.74;100.00;98634.75;5030934;28;19928;-66
2021/05/18 13:39:56;;;;;;;;;;;;;;;14.94;100.00;98627.56;5048461;28;19966;-65
2021/05/18 13:42:22;;;;;;;;;;;;;;;13.95;100.00;98632.81;5033151;28;19917;-66
2021/05/18 13:44:48;;;;;;;;;;;;;;;13.81;100.00;98624.94;5033110;28;19916;-66
2021/05/18 13:47:13;;;;;;;;;;;;;;;12.71;100.00;98637.13;5050946;28;19913;-66
2021/05/18 13:49:40;;;;;;;;;;;;;;;13.77;100.00;98623.41;5050947;28;19935;-66
2021/05/18 13:52:07;;;;;;;;;;;;;;;13.99;100.00;98629.16;5048991;28;19984;-66
2021/05/18 13:54:32;;;;;;;;;;;;;;;13.94;100.00;98630.31;5032703;28;20059;-66
2021/05/18 13:56:59;;;;;;;;;;;;;;;14.23;100.00;98632.22;5049715;28;20003;-66
2021/05/18 13:59:24;;;;;;;;;;;;;;;14.22;100.00;98633.13;5050385;28;20556;-66
2021/05/18 14:01:49;;;;;;;;;;;;;;;15.14;100.00;98624.69;5049655;28;19912;-65
2021/05/18 14:04:15;;;;;;;;;;;;;;;15.88;100.00;98626.47;5033165;28;19919;-66
2021/05/18 14:06:52;;;;;;;;;;;;;;;15.12;100.00;98628.28;5050874;28;20373;-66
2021/05/18 14:09:17;;;;;;;;;;;;;;;16.85;100.00;98632.72;5049934;28;19920;-66
2021/05/18 14:11:43;;;;;;;;;;;;;;;16.79;100.00;98623.53;5048962;28;19912;-66
2021/05/18 14:14:08;;;;;;;;;;;;;;;15.75;100.00;98630.72;5032373;28;19916;-66
2021/05/18 14:16:33;;;;;;;;;;;;;;;13.59;100.00;98638.97;5032024;28;19913;-66
2021/05/18 14:18:58;;;;;;;;;;;;;;;13.28;100.00;98639.63;5048901;28;20217;-66
2021/05/18 14:21:25;;;;;;;;;;;;;;;13.32;100.00;98643.75;5031490;28;19917;-66
2021/05/18 14:26:16;;;;;;;;;;;;;;;14.96;100.00;98631.78;5052431;28;19913;-66
2021/05/18 14:28:41;;;;;;;;;;;;;;;14.27;100.00;98626.88;5053090;28;20552;-66
2021/05/18 14:31:08;;;;;;;;;;;;;;;13.84;100.00;98636.88;5028265;28;19913;-65
2021/05/18 14:33:34;;;;;;;;;;;;;;;14.36;100.00;98627.22;5014078;28;19917;-68
2021/05/18 14:35:59;;;;;;;;;;;;;;;13.91;100.00;98636.50;5031317;28;19917;-65
2021/05/18 14:38:25;;;;;;;;;;;;;;;13.63;100.00;98625.88;5031777;28;19913;-65
2021/05/18 14:45:58;;;;;;;;;;;;;;;14.19;100.00;98628.13;5034876;28;20340;-65
2021/05/18 14:54:01;;;;;;;;;;;;;;;14.09;100.00;98629.50;5052324;28;20008;-65
2021/05/18 14:56:26;;;;;;;;;;;;;;;13.56;100.00;98636.50;5046635;28;19921;-66
2021/05/18 14:58:52;;;;;;;;;;;;;;;14.00;100.00;98630.84;5047978;28;20293;-66
2021/05/18 15:01:17;;;;;;;;;;;;;;;13.65;100.00;98637.81;5053876;28;19912;-66
2021/05/18 15:03:42;;;;;;;;;;;;;;;14.47;100.00;98629.22;5051045;28;20378;-66
2021/05/18 15:06:08;;;;;;;;;;;;;;;13.95;100.00;98631.97;5041086;28;19992;-66
2021/05/18 15:08:33;;;;;;;;;;;;;;;13.58;100.00;98636.44;5035444;28;19978;-66
2021/05/18 15:11:02;;;;;;;;;;;;;;;13.25;100.00;98637.19;5035039;28;20381;-66
2021/05/18 15:13:27;;;;;;;;;;;;;;;13.33;100.00;98636.81;5053433;28;19951;-66
2021/05/18 15:15:53;;;;;;;;;;;;;;;13.16;100.00;98640.22;5039918;28;20035;-66
2021/05/18 15:18:18;;;;;;;;;;;;;;;13.70;100.00;98635.81;5051124;28;19921;-66
2021/05/18 15:20:44;;;;;;;;;;;;;;;13.98;100.00;98637.84;5032774;28;19913;-66
2021/05/18 15:23:09;;;;;;;;;;;;;;;13.73;100.00;98640.84;5030639;28;19913;-66
2021/05/18 15:25:34;;;;;;;;;;;;;;;13.48;100.00;98638.66;5028893;28;19920;-66
2021/05/18 15:28:00;;;;;;;;;;;;;;;13.93;100.00;98633.81;5044732;28;20352;-66
2021/05/18 15:30:25;;;;;;;;;;;;;;;13.72;100.00;98640.94;5005898;28;19923;-66
2021/05/18 15:32:50;;;;;;;;;;;;;;;13.86;100.00;98635.88;5040921;28;19917;-66
2021/05/18 15:35:16;;;;;;;;;;;;;;;13.79;100.00;98643.13;5028329;28;19959;-66
2021/05/18 15:37:44;;;;;;;;;;;;;;;13.72;100.00;98640.94;5048394;28;19917;-66
2021/05/18 15:40:12;;;;;;;;;;;;;;;14.14;100.00;98645.66;5040907;28;19952;-66
2021/05/18 15:42:38;;;;;;;;;;;;;;;13.97;100.00;98645.69;5048680;28;19919;-66
2021/05/18 15:45:04;;;;;;;;;;;;;;;13.89;100.00;98653.00;5019664;28;19999;-66
2021/05/18 15:47:29;;;;;;;;;;;;;;;13.73;100.00;98652.94;5054115;28;19913;-66
2021/05/18 15:49:55;;;;;;;;;;;;;;;13.74;100.00;98654.63;5053968;28;20377;-66
2021/05/18 15:52:20;;;;;;;;;;;;;;;13.42;100.00;98662.25;5035656;28;19959;-65
2021/05/18 15:54:45;;;;;;;;;;;;;;;14.33;100.00;98657.63;5053728;28;19967;-66
2021/05/18 15:57:11;;;;;;;;;;;;;;;13.82;100.00;98660.22;5053310;28;19948;-66
2021/05/18 15:59:37;;;;;;;;;;;;;;;14.26;100.00;98656.28;5033938;28;20373;-66
2021/05/18 16:02:02;;;;;;;;;;;;;;;14.63;100.00;98661.19;5031056;28;19963;-67
2021/05/18 16:04:27;;;;;;;;;;;;;;;14.64;100.00;98657.72;5046822;28;19912;-66
2021/05/18 16:06:53;;;;;;;;;;;;;;;14.19;100.00;98664.38;5033188;28;19952;-66
2021/05/18 16:09:18;;;;;;;;;;;;;;;14.76;100.00;98669.16;5041928;28;19913;-66
2021/05/18 16:11:43;;;;;;;;;;;;;;;14.11;100.00;98666.50;5030126;28;19913;-66
2021/05/18 16:14:09;;;;;;;;;;;;;;;13.49;100.00;98673.94;5032385;28;19942;-66
2021/05/18 16:16:35;;;;;;;;;;;;;;;13.60;100.00;98679.44;5032427;28;20463;-66
2021/05/18 16:19:00;;;;;;;;;;;;;;;13.25;100.00;98675.97;5036786;28;20007;-66
2021/05/18 16:21:25;;;;;;;;;;;;;;;12.94;100.00;98686.91;5031687;28;19916;-66
2021/05/18 16:23:53;;;;;;;;;;;;;;;12.47;100.00;98695.91;5028812;28;19913;-66
2021/05/18 16:26:19;;;;;;;;;;;;;;;11.69;100.00;98704.41;5025337;28;19919;-66
2021/05/18 16:28:45;;;;;;;;;;;;;;;12.05;100.00;98693.47;5052367;28;19932;-66
2021/05/18 16:31:11;;;;;;;;;;;;;;;11.71;100.00;98695.69;5033530;28;20206;-66
2021/05/18 16:33:36;;;;;;;;;;;;;;;11.58;100.00;98697.09;5007349;28;19913;-66
2021/05/18 16:36:02;;;;;;;;;;;;;;;11.78;100.00;98695.47;5030326;28;19921;-66
2021/05/18 16:38:28;;;;;;;;;;;;;;;12.43;100.00;98686.66;5035062;28;20383;-66
2021/05/18 16:40:54;;;;;;;;;;;;;;;12.54;100.00;98692.19;5018335;28;19913;-66
2021/05/18 16:43:21;;;;;;;;;;;;;;;12.97;100.00;98690.19;5034611;28;20240;-66
2021/05/18 16:45:46;;;;;;;;;;;;;;;13.09;100.00;98688.78;5037537;28;19913;-65
2021/05/18 16:48:11;;;;;;;;;;;;;;;12.80;100.00;98692.72;5028854;28;20286;-66
2021/05/18 16:50:37;;;;;;;;;;;;;;;12.55;100.00;98698.16;5025062;28;20007;-66
2021/05/18 16:53:02;;;;;;;;;;;;;;;12.52;100.00;98693.13;5024162;28;20012;-65
2021/05/18 16:55:29;;;;;;;;;;;;;;;12.68;100.00;98695.84;5053015;28;20360;-66
2021/05/18 16:57:55;;;;;;;;;;;;;;;12.34;100.00;98694.81;5023012;28;19913;-65
2021/05/18 17:00:20;;;;;;;;;;;;;;;12.65;100.00;98699.41;5024307;28;20393;-66
2021/05/18 17:02:46;;;;;;;;;;;;;;;13.13;100.00;98702.41;5033487;28;19913;-66
2021/05/18 17:05:12;;;;;;;;;;;;;;;12.93;100.00;98693.84;5047041;28;19917;-66
2021/05/18 17:07:37;;;;;;;;;;;;;;;12.66;100.00;98700.28;5051427;28;19923;-66
2021/05/18 17:10:04;;;;;;;;;;;;;;;11.99;100.00;98702.31;5051880;28;20140;-66
2021/05/18 17:12:29;;;;;;;;;;;;;;;11.78;100.00;98698.03;5049459;28;19924;-66
2021/05/18 17:14:54;;;;;;;;;;;;;;;12.60;100.00;98697.97;5034030;28;19923;-66
2021/05/18 17:17:20;;;;;;;;;;;;;;;13.13;100.00;98694.63;5051950;28;19920;-66
2021/05/18 17:19:45;;;;;;;;;;;;;;;12.95;100.00;98693.75;5047122;28;20404;-66
2021/05/18 17:22:11;;;;;;;;;;;;;;;13.85;100.00;98682.56;5048870;28;19912;-66
2021/05/18 17:24:37;;;;;;;;;;;;;;;14.23;100.00;98685.75;5044803;28;19913;-66
2021/05/18 17:27:02;;;;;;;;;;;;;;;14.83;100.00;98669.66;5018327;28;19920;-66
2021/05/18 17:29:28;;;;;;;;;;;;;;;14.68;100.00;98673.09;5043906;28;19971;-66
2021/05/18 17:31:54;;;;;;;;;;;;;;;15.23;100.00;98673.44;5032838;28;19964;-66
2021/05/18 17:34:19;;;;;;;;;;;;;;;14.99;100.00;98667.06;5019309;28;19927;-66
2021/05/18 17:36:47;;;;;;;;;;;;;;;14.37;100.00;98674.69;5033873;28;19917;-66
2021/05/18 17:39:13;;;;;;;;;;;;;;;16.01;100.00;98672.47;5028535;28;20262;-66
2021/05/18 17:41:38;;;;;;;;;;;;;;;16.50;100.00;98670.34;5024948;28;20008;-66
2021/05/18 17:44:03;;;;;;;;;;;;;;;17.00;100.00;98670.75;5052092;28;20047;-66
2021/05/18 17:46:33;;;;;;;;;;;;;;;16.29;91.58;98677.69;5042525;28;19913;-66
2021/05/18 17:48:58;;;;;;;;;;;;;;;17.69;92.78;98681.06;5034195;28;19984;-66
2021/05/18 17:51:24;;;;;;;;;;;;;;;18.21;86.22;98679.34;5051884;28;20404;-66
2021/05/18 17:53:49;;;;;;;;;;;;;;;18.60;87.80;98676.56;5039871;28;19913;-66
2021/05/18 17:56:14;;;;;;;;;;;;;;;17.27;82.23;98698.56;5033690;28;19940;-66
2021/05/18 17:58:40;;;;;;;;;;;;;;;17.10;79.29;98695.25;5032627;28;20011;-66
2021/05/18 18:01:05;;;;;;;;;;;;;;;18.18;78.13;98693.44;5031780;28;20337;-66
2021/05/18 18:03:30;;;;;;;;;;;;;;;16.71;79.98;98714.97;5051221;28;20410;-66
2021/05/18 18:05:56;;;;;;;;;;;;;;;16.56;80.18;98705.56;5042485;28;19917;-66
2021/05/18 18:08:25;;;;;;;;;;;;;;;16.92;81.72;98704.22;5014758;28;21356;-66